createdAt,value
2019-04-23T00:01:41.865Z,54.80
2019-04-23T00:04:18.320Z,55.40
2019-04-23T00:06:59.435Z,55.00
2019-04-23T00:11:54.371Z,55.30
2019-04-23T00:14:35.424Z,55.30
2019-04-23T00:16:59.175Z,55.80
2019-04-23T00:19:24.701Z,55.30
2019-04-23T00:21:58.530Z,55.30
2019-04-23T00:29:53.294Z,55.30
2019-04-23T00:32:25.157Z,55.80
2019-04-23T00:37:25.681Z,55.20
2019-04-23T00:39:52.799Z,54.90
2019-04-23T00:44:51.574Z,55.30
2019-04-23T00:47:25.720Z,55.50
2019-04-23T00:50:03.886Z,55.60
2019-04-23T00:52:30.574Z,55.50
2019-04-23T00:55:04.386Z,55.30
2019-04-23T00:57:30.569Z,55.70
2019-04-23T01:00:03.317Z,56.10
2019-04-23T01:02:31.210Z,57.30
2019-04-23T01:05:06.791Z,57.00
2019-04-23T01:10:02.835Z,56.90
2019-04-23T01:12:37.538Z,57.10
2019-04-23T01:15:02.499Z,57.60
2019-04-23T01:17:39.758Z,57.60
2019-04-23T01:20:05.751Z,57.90
2019-04-23T01:22:16.667Z,57.80
2019-04-23T01:25:04.464Z,57.70
2019-04-23T01:28:07.791Z,57.80
2019-04-23T01:30:40.614Z,56.80
2019-04-23T01:33:11.070Z,56.00
2019-04-23T01:35:41.322Z,54.70
2019-04-23T01:38:11.085Z,54.50
2019-04-23T01:40:40.692Z,56.10
2019-04-23T01:43:16.258Z,56.30
2019-04-23T01:45:40.956Z,56.70
2019-04-23T01:48:13.128Z,56.00
2019-04-23T01:53:18.429Z,56.00
2019-04-23T01:55:56.187Z,55.60
2019-04-23T01:58:32.437Z,54.80
2019-04-23T02:03:20.692Z,56.20
2019-04-23T02:05:58.289Z,56.10
2019-04-23T02:08:20.961Z,56.60
2019-04-23T02:10:58.781Z,57.40
2019-04-23T02:15:52.864Z,57.00
2019-04-23T02:18:23.095Z,56.80
2019-04-23T02:23:32.874Z,57.90
2019-04-23T02:26:03.237Z,57.50
2019-04-23T02:28:32.868Z,57.60
2019-04-23T02:31:35.811Z,58.60
2019-04-23T02:38:46.362Z,58.80
2019-04-23T02:41:20.390Z,58.90
2019-04-23T02:43:36.105Z,57.40
2019-04-23T02:46:11.670Z,58.30
2019-04-23T02:48:52.594Z,58.50
2019-04-23T02:51:21.476Z,59.00
2019-04-23T02:56:21.554Z,58.90
2019-04-23T03:03:51.329Z,57.80
2019-04-23T03:06:18.912Z,58.50
2019-04-23T03:08:47.045Z,58.40
2019-04-23T03:13:54.129Z,59.60
2019-04-23T03:24:43.609Z,60.30
2019-04-23T03:27:19.331Z,60.40
2019-04-23T03:29:40.478Z,59.50
2019-04-23T03:37:17.022Z,58.50
2019-04-23T03:42:09.939Z,61.00
2019-04-23T03:47:18.742Z,61.70
2019-04-23T03:49:46.392Z,61.20
2019-04-23T03:52:24.953Z,60.70
2019-04-23T03:59:58.978Z,60.70
2019-04-23T04:04:44.598Z,61.10
2019-04-23T04:17:30.229Z,61.50
2019-04-23T04:22:54.471Z,60.00
2019-04-23T04:30:01.167Z,60.50
2019-04-23T04:32:46.909Z,61.50
2019-04-23T04:42:37.065Z,63.60
2019-04-23T04:45:14.234Z,64.60
2019-04-23T04:52:47.118Z,65.20
2019-04-23T04:55:15.602Z,65.60
2019-04-23T04:57:40.179Z,66.10
2019-04-23T05:00:44.160Z,65.80
2019-04-23T05:05:47.869Z,63.80
2019-04-23T05:10:16.532Z,63.00
2019-04-23T05:13:19.500Z,62.40
2019-04-23T05:15:14.259Z,63.00
2019-04-23T05:17:59.921Z,63.70
2019-04-23T05:20:21.187Z,63.10
2019-04-23T05:23:08.821Z,63.80
2019-04-23T05:25:18.034Z,64.30
2019-04-23T05:28:06.332Z,62.90
2019-04-23T05:32:56.168Z,62.60
2019-04-23T05:35:39.929Z,63.00
2019-04-23T05:38:08.762Z,63.90
2019-04-23T05:42:58.855Z,64.70
2019-04-23T05:45:30.178Z,64.00
2019-04-23T05:48:06.803Z,64.10
2019-04-23T05:50:38.623Z,64.80
2019-04-23T05:52:59.250Z,64.60
2019-04-23T05:55:26.999Z,64.30
2019-04-23T05:58:03.691Z,64.70
2019-04-23T06:00:34.438Z,64.90
2019-04-23T06:03:04.735Z,64.20
2019-04-23T06:05:39.927Z,63.90
2019-04-23T06:08:06.921Z,63.90
2019-04-23T06:10:42.054Z,63.40
2019-04-23T06:13:06.597Z,62.70
2019-04-23T06:15:41.671Z,62.80
2019-04-23T06:20:42.284Z,62.70
2019-04-23T06:23:16.439Z,62.40
2019-04-23T06:25:59.651Z,63.10
2019-04-23T06:28:19.761Z,62.20
2019-04-23T06:33:16.344Z,61.50
2019-04-23T06:35:45.117Z,62.30
2019-04-23T06:38:34.404Z,61.10
2019-04-23T06:40:47.155Z,61.40
2019-04-23T06:43:22.603Z,60.40
2019-04-23T06:45:45.605Z,59.70
2019-04-23T06:53:12.650Z,60.10
2019-04-23T06:58:26.054Z,59.70
2019-04-23T07:00:59.198Z,59.10
2019-04-23T07:06:13.845Z,58.50
2019-04-23T07:08:56.256Z,57.90
2019-04-23T07:11:17.260Z,56.70
2019-04-23T07:13:50.751Z,55.30
2019-04-23T07:18:36.194Z,52.10
2019-04-23T07:21:15.462Z,52.80
2019-04-23T07:23:46.842Z,51.90
2019-04-23T07:26:21.274Z,51.60
2019-04-23T07:28:43.563Z,51.20
2019-04-23T07:31:14.133Z,49.70
2019-04-23T07:33:45.918Z,49.60
2019-04-23T07:36:17.575Z,49.70
2019-04-23T07:39:07.949Z,49.10
2019-04-23T07:41:39.468Z,49.80
2019-04-23T07:44:14.164Z,49.40
2019-04-23T07:46:52.768Z,48.00
2019-04-23T07:49:18.104Z,49.70
2019-04-23T07:51:48.113Z,48.60
2019-04-23T07:56:54.156Z,47.10
2019-04-23T07:59:20.754Z,48.10
2019-04-23T08:01:49.183Z,48.80
2019-04-23T08:04:16.525Z,47.40
2019-04-23T08:06:52.091Z,48.60
2019-04-23T08:11:49.261Z,45.60
2019-04-23T08:14:13.946Z,47.30
2019-04-23T08:16:49.969Z,47.20
2019-04-23T08:19:34.970Z,46.30
2019-04-23T08:21:58.172Z,46.80
2019-04-23T08:24:50.562Z,47.80
2019-04-23T08:29:45.916Z,46.50
2019-04-23T08:32:18.580Z,45.50
2019-04-23T08:34:57.751Z,45.40
2019-04-23T08:37:51.255Z,46.50
2019-04-23T08:39:46.490Z,46.30
2019-04-23T08:45:15.323Z,43.90
2019-04-23T08:47:49.043Z,45.00
2019-04-23T08:50:14.957Z,44.30
2019-04-23T08:52:43.074Z,43.90
2019-04-23T08:55:13.808Z,44.50
2019-04-23T08:57:45.308Z,43.90
2019-04-23T09:00:18.641Z,43.80
2019-04-23T09:05:16.147Z,45.70
2019-04-23T09:07:55.279Z,45.10
2019-04-23T09:10:19.654Z,43.90
2019-04-23T09:12:55.311Z,44.40
2019-04-23T09:15:26.291Z,44.20
2019-04-23T09:20:23.200Z,44.40
2019-04-23T09:23:02.823Z,44.20
2019-04-23T09:25:28.431Z,44.30
2019-04-23T09:27:54.440Z,42.70
2019-04-23T09:33:00.021Z,43.00
2019-04-23T09:35:27.490Z,43.00
2019-04-23T09:38:17.710Z,42.60
2019-04-23T09:44:02.822Z,42.30
2019-04-23T09:46:22.461Z,41.30
2019-04-23T09:48:54.814Z,41.40
2019-04-23T09:51:17.858Z,42.40
2019-04-23T09:53:51.219Z,41.80
2019-04-23T09:56:23.565Z,42.90
2019-04-23T09:58:57.752Z,42.30
2019-04-23T10:01:26.036Z,40.60
2019-04-23T10:03:46.165Z,42.10
2019-04-23T10:06:12.350Z,41.80
2019-04-23T10:08:42.938Z,41.40
2019-04-23T10:11:07.427Z,42.60
2019-04-23T10:13:36.639Z,42.00
2019-04-23T10:16:06.875Z,41.30
2019-04-23T10:18:37.369Z,41.50
2019-04-23T10:21:07.617Z,41.60
2019-04-23T10:23:37.168Z,42.20
2019-04-23T10:26:07.912Z,42.00
2019-04-23T10:28:42.165Z,42.40
2019-04-23T10:31:12.625Z,42.40
2019-04-23T10:33:42.177Z,42.20
2019-04-23T10:36:15.134Z,41.80
2019-04-23T10:38:54.300Z,40.70
2019-04-23T10:41:13.962Z,43.90
2019-04-23T10:43:47.994Z,42.40
2019-04-23T10:46:36.421Z,42.90
2019-04-23T10:49:42.402Z,41.00
2019-04-23T10:52:04.944Z,42.50
2019-04-23T10:54:39.566Z,41.20
2019-04-23T10:57:01.676Z,41.50
2019-04-23T11:07:27.089Z,40.30
2019-04-23T11:12:35.939Z,42.60
2019-04-23T11:14:57.818Z,39.30
2019-04-23T11:17:35.659Z,41.20
2019-04-23T11:20:07.462Z,41.60
2019-04-23T11:22:42.579Z,43.70
2019-04-23T11:25:21.569Z,42.50
2019-04-23T11:27:32.226Z,41.70
2019-04-23T11:30:05.716Z,40.00
2019-04-23T11:35:17.669Z,40.50
2019-04-23T11:40:11.229Z,41.50
2019-04-23T11:45:15.275Z,42.20
2019-04-23T11:48:12.318Z,40.10
2019-04-23T11:50:42.256Z,41.30
2019-04-23T11:52:51.556Z,41.60
2019-04-23T11:55:28.683Z,41.30
2019-04-23T11:57:52.470Z,42.90
2019-04-23T12:00:14.571Z,42.70
2019-04-23T12:05:54.710Z,41.90
2019-04-23T12:08:17.010Z,42.20
2019-04-23T12:11:15.560Z,42.70
2019-04-23T12:13:35.541Z,42.80
2019-04-23T12:16:00.746Z,44.60
2019-04-23T12:18:43.318Z,43.30
2019-04-23T12:21:13.377Z,43.50
2019-04-23T12:23:50.534Z,42.90
2019-04-23T12:26:20.917Z,43.00
2019-04-23T12:28:43.989Z,43.00
2019-04-23T12:31:08.784Z,43.30
2019-04-23T12:33:44.813Z,43.40
2019-04-23T12:36:42.082Z,43.70
2019-04-23T12:39:04.343Z,43.70
2019-04-23T12:41:30.579Z,43.70
2019-04-23T12:44:10.915Z,44.20
2019-04-23T12:46:38.453Z,43.90
2019-04-23T12:49:28.721Z,43.80
2019-04-23T12:51:45.294Z,43.30
2019-04-23T12:54:07.755Z,43.80
2019-04-23T12:56:49.107Z,43.90
2019-04-23T12:59:04.161Z,43.40
2019-04-23T13:01:44.267Z,43.00
2019-04-23T13:04:09.262Z,43.50
2019-04-23T13:06:36.809Z,43.60
2019-04-23T13:09:21.767Z,43.00
2019-04-23T13:11:41.056Z,43.00
2019-04-23T13:16:44.753Z,43.40
2019-04-23T13:19:26.381Z,42.90
2019-04-23T13:24:18.751Z,43.20
2019-04-23T13:26:44.703Z,44.20
2019-04-23T13:29:18.566Z,43.90
2019-04-23T13:31:44.713Z,44.20
2019-04-23T13:34:23.058Z,42.90
2019-04-23T13:36:51.517Z,43.60
2019-04-23T13:41:45.810Z,43.90
2019-04-23T13:44:17.270Z,43.60
2019-04-23T13:46:51.069Z,44.40
2019-04-23T13:49:28.124Z,44.80
2019-04-23T13:51:47.190Z,43.60
2019-04-23T13:54:28.418Z,44.10
2019-04-23T13:57:25.138Z,44.20
2019-04-23T13:59:35.173Z,43.20
2019-04-23T14:01:46.740Z,42.50
2019-04-23T14:06:59.520Z,44.10
2019-04-23T14:09:40.696Z,43.90
2019-04-23T14:12:01.496Z,44.80
2019-04-23T14:14:45.250Z,44.00
2019-04-23T14:17:16.575Z,44.20
2019-04-23T14:19:41.836Z,44.40
2019-04-23T14:22:20.958Z,44.80
2019-04-23T14:24:45.802Z,45.00
2019-04-23T14:27:17.961Z,45.40
2019-04-23T14:29:50.322Z,45.80
2019-04-23T14:32:15.953Z,45.60
2019-04-23T14:34:46.321Z,45.80
2019-04-23T14:37:16.153Z,45.50
2019-04-23T14:39:43.703Z,46.20
2019-04-23T14:42:20.406Z,45.30
2019-04-23T14:44:49.729Z,44.50
2019-04-23T14:47:23.927Z,46.20
2019-04-23T14:50:28.051Z,45.60
2019-04-23T14:52:38.335Z,46.00
2019-04-23T14:57:42.263Z,47.10
2019-04-23T15:00:01.866Z,48.10
2019-04-23T15:02:48.584Z,48.70
2019-04-23T15:05:13.146Z,49.90
2019-04-23T15:07:34.708Z,49.50
2019-04-23T15:12:39.055Z,50.00
2019-04-23T15:15:14.256Z,49.30
2019-04-23T15:17:40.535Z,49.40
2019-04-23T15:20:19.997Z,49.60
2019-04-23T15:23:17.153Z,50.40
2019-04-23T15:25:30.155Z,50.20
2019-04-23T15:30:09.078Z,50.20
2019-04-23T15:40:30.324Z,50.20
2019-04-23T15:42:57.991Z,50.30
2019-04-23T15:45:24.164Z,50.50
2019-04-23T15:48:00.527Z,50.80
2019-04-23T15:50:40.156Z,50.70
2019-04-23T15:55:44.134Z,51.90
2019-04-23T16:00:24.939Z,52.10
2019-04-23T16:02:29.480Z,52.00
2019-04-23T16:04:59.954Z,51.50
2019-04-23T16:07:48.256Z,51.70
2019-04-23T16:10:52.385Z,51.10
2019-04-23T16:13:02.519Z,51.80
2019-04-23T16:15:29.175Z,51.50
2019-04-23T16:18:20.290Z,50.80
2019-04-23T16:20:56.025Z,51.40
2019-04-23T16:23:15.225Z,52.20
2019-04-23T16:25:42.009Z,51.20
2019-04-23T16:28:23.976Z,51.60
2019-04-23T16:30:46.238Z,51.20
2019-04-23T16:33:11.161Z,51.50
2019-04-23T16:40:53.874Z,52.90
2019-04-23T16:43:40.406Z,53.20
2019-04-23T16:46:02.399Z,53.40
2019-04-23T16:48:55.326Z,53.20
2019-04-23T16:53:25.248Z,52.60
2019-04-23T16:56:06.925Z,52.90
2019-04-23T16:58:36.691Z,52.70
2019-04-23T17:01:08.588Z,52.50
2019-04-23T17:06:10.087Z,52.40
2019-04-23T17:08:57.779Z,52.40
2019-04-23T17:11:44.792Z,52.20
2019-04-23T17:14:13.575Z,52.40
2019-04-23T17:16:40.107Z,52.50
2019-04-23T17:19:17.757Z,53.00
2019-04-23T17:21:44.064Z,53.10
2019-04-23T17:24:19.027Z,53.00
2019-04-23T17:26:45.576Z,53.70
2019-04-23T17:31:44.960Z,55.20
2019-04-23T17:34:24.080Z,54.20
2019-04-23T17:36:56.131Z,54.00
2019-04-23T17:42:29.211Z,54.70
2019-04-23T17:47:52.429Z,54.90
2019-04-23T17:50:28.626Z,54.40
2019-04-23T17:55:35.855Z,55.20
2019-04-23T17:58:06.245Z,55.80
2019-04-23T18:03:11.107Z,55.40
2019-04-23T18:05:33.328Z,55.40
2019-04-23T18:08:15.529Z,56.00
2019-04-23T18:11:05.653Z,55.70
2019-04-23T18:13:13.306Z,56.10
2019-04-23T18:15:45.499Z,56.60
2019-04-23T18:18:28.415Z,56.50
2019-04-23T18:21:14.254Z,56.80
2019-04-23T18:23:37.932Z,57.30
2019-04-23T18:26:17.536Z,57.30
2019-04-23T18:28:50.182Z,57.20
2019-04-23T18:31:12.965Z,57.50
2019-04-23T18:36:14.730Z,58.20
2019-04-23T18:38:50.063Z,58.30
2019-04-23T18:41:39.455Z,58.70
2019-04-23T18:43:46.376Z,59.20
2019-04-23T18:46:30.577Z,59.40
2019-04-23T18:48:49.778Z,59.90
2019-04-23T18:51:37.212Z,59.90
2019-04-23T18:53:52.986Z,60.00
2019-04-23T19:01:27.860Z,60.70
2019-04-23T19:04:17.437Z,61.70
2019-04-23T19:06:55.490Z,61.50
2019-04-23T19:09:23.416Z,60.70
2019-04-23T19:14:40.909Z,61.00
2019-04-23T19:17:29.872Z,61.30
2019-04-23T19:19:36.784Z,62.10
2019-04-23T19:25:01.598Z,62.30
2019-04-23T19:27:32.093Z,62.60
2019-04-23T19:30:18.344Z,64.50
2019-04-23T19:32:59.107Z,63.60
2019-04-23T19:35:57.506Z,64.90
2019-04-23T19:38:13.443Z,64.60
2019-04-23T19:41:00.177Z,65.10
2019-04-23T19:43:50.627Z,65.10
2019-04-23T19:49:07.188Z,64.00
2019-04-23T19:51:38.873Z,63.80
2019-04-23T19:54:21.525Z,63.50
2019-04-23T19:56:59.289Z,64.80
2019-04-23T20:02:18.611Z,63.90
2019-04-23T20:10:44.561Z,65.50
2019-04-23T20:13:19.880Z,66.10
2019-04-23T20:16:10.575Z,66.30
2019-04-23T20:21:34.692Z,67.00
2019-04-23T20:27:01.187Z,67.20
2019-04-23T20:30:05.277Z,67.80
2019-04-23T20:35:35.564Z,68.30
2019-04-23T20:40:39.934Z,68.50
2019-04-23T20:43:09.359Z,68.90
2019-04-23T20:45:58.807Z,69.90
2019-04-23T20:48:49.053Z,68.80
2019-04-23T20:51:16.195Z,69.00
2019-04-23T20:54:12.326Z,68.90
2019-04-23T20:56:42.667Z,69.20
2019-04-23T20:59:33.650Z,69.20
2019-04-23T21:02:58.830Z,69.90
2019-04-23T21:08:06.096Z,70.20
2019-04-23T21:10:50.698Z,70.90
2019-04-23T21:14:01.685Z,71.20
2019-04-23T21:16:15.287Z,71.40
2019-04-23T21:18:55.049Z,71.70
2019-04-23T21:21:46.208Z,72.00
2019-04-23T21:24:27.460Z,72.30
2019-04-23T21:27:21.826Z,73.00
2019-04-23T21:30:05.236Z,72.50
2019-04-23T21:35:44.000Z,72.30
2019-04-23T21:38:09.676Z,72.10
2019-04-23T21:40:53.647Z,71.70
2019-04-23T21:43:10.495Z,73.10
2019-04-23T21:45:52.702Z,72.20
2019-04-23T21:53:20.235Z,73.70
2019-04-23T21:56:42.748Z,73.30
2019-04-23T21:58:20.118Z,73.00
2019-04-23T22:00:53.081Z,73.40
2019-04-23T22:03:17.911Z,73.60
2019-04-23T22:05:49.467Z,73.40
2019-04-23T22:08:33.022Z,72.70
2019-04-23T22:11:00.493Z,72.50
2019-04-23T22:16:01.773Z,73.40
2019-04-23T22:18:27.691Z,72.30
2019-04-23T22:20:59.452Z,72.50
2019-04-23T22:23:30.377Z,73.00
2019-04-23T22:26:23.560Z,73.00
2019-04-23T22:28:30.213Z,73.30
2019-04-23T22:31:04.235Z,73.10
2019-04-23T22:33:37.266Z,72.30
2019-04-23T22:36:04.513Z,72.50
2019-04-23T22:38:33.851Z,72.60
2019-04-23T22:43:31.422Z,72.70
2019-04-23T22:48:47.629Z,73.50
2019-04-23T22:51:10.892Z,73.10
2019-04-23T22:53:37.833Z,72.80
2019-04-23T22:56:10.021Z,73.10
2019-04-23T22:58:51.708Z,72.70
2019-04-23T23:01:25.975Z,71.90
2019-04-23T23:03:58.996Z,72.80
2019-04-23T23:06:36.850Z,72.90
2019-04-23T23:09:11.626Z,72.20
2019-04-23T23:11:22.781Z,73.20
2019-04-23T23:16:28.194Z,74.00
2019-04-23T23:19:10.205Z,74.40
2019-04-23T23:21:43.093Z,74.50
2019-04-23T23:24:10.051Z,74.40
2019-04-23T23:29:00.721Z,73.50
2019-04-23T23:31:37.299Z,73.60
2019-04-23T23:34:11.671Z,73.10
2019-04-23T23:39:18.172Z,72.60
2019-04-23T23:41:46.646Z,72.10
2019-04-23T23:44:28.082Z,71.60
2019-04-23T23:46:50.665Z,71.20
2019-04-23T23:49:14.150Z,71.30
2019-04-23T23:54:19.735Z,72.20
2019-04-23T23:56:49.783Z,72.60
